Time;durP1;ratioP1;P1;durP2;ratioP2;P2;SDS_P1;SDS_P2;PMS_P1;PMS_P2;Temp;Humidity;BMP_temperature;BMP_pressure;BME280_temperature;BME280_humidity;BME280_pressure;Samples;Min_cycle;Max_cycle;Signal;HPM_P1;HPM_P2
2024/02/28 00:00:43;;;;;;;2.25;1.63;;;21.10;70.80;;;;;;4999832;28;20315;-74
2024/02/28 00:03:09;;;;;;;2.07;1.50;;;21.00;70.60;;;;;;4996885;28;20231;-75
2024/02/28 00:05:36;;;;;;;1.92;1.75;;;21.00;70.70;;;;;;4993335;28;20456;-74
2024/02/28 00:08:03;;;;;;;1.83;1.40;;;21.00;70.60;;;;;;4997706;28;20688;-75
2024/02/28 00:10:30;;;;;;;1.75;1.58;;;21.00;70.60;;;;;;4995342;28;20200;-74
2024/02/28 00:12:58;;;;;;;1.63;1.30;;;21.00;70.70;;;;;;4996636;28;20196;-74
2024/02/28 00:15:25;;;;;;;2.03;1.40;;;21.00;70.70;;;;;;5001338;28;20254;-74
2024/02/28 00:17:53;;;;;;;1.33;1.10;;;21.00;70.70;;;;;;5005432;28;20199;-74
2024/02/28 00:20:20;;;;;;;1.80;1.17;;;21.10;70.80;;;;;;4997246;28;20265;-74
2024/02/28 00:22:46;;;;;;;1.58;1.45;;;21.00;70.70;;;;;;4996965;28;20238;-74
2024/02/28 00:25:13;;;;;;;1.80;1.40;;;21.00;70.70;;;;;;5002629;28;20306;-75
2024/02/28 00:27:40;;;;;;;1.45;1.35;;;21.00;70.80;;;;;;5003253;28;20212;-74
2024/02/28 00:30:09;;;;;;;1.25;1.13;;;21.00;70.70;;;;;;5003742;28;20752;-74
2024/02/28 00:32:36;;;;;;;1.70;1.60;;;21.00;70.80;;;;;;4998621;28;20215;-74
2024/02/28 00:35:03;;;;;;;1.58;1.40;;;21.00;70.80;;;;;;5000775;28;20211;-73
2024/02/28 00:37:30;;;;;;;1.42;1.30;;;21.00;70.80;;;;;;5000011;28;20249;-74
2024/02/28 00:39:57;;;;;;;1.75;1.20;;;21.00;70.90;;;;;;5000259;28;20203;-74
2024/02/28 00:42:24;;;;;;;2.28;1.70;;;21.00;70.80;;;;;;5001774;28;20708;-74
2024/02/28 00:44:50;;;;;;;2.20;1.65;;;21.00;70.90;;;;;;5000569;28;20196;-74
2024/02/28 00:47:18;;;;;;;1.75;1.30;;;21.00;70.70;;;;;;5001029;28;20597;-74
2024/02/28 00:49:45;;;;;;;2.25;1.27;;;21.00;70.70;;;;;;4993302;28;20200;-74
2024/02/28 00:52:12;;;;;;;1.70;1.48;;;21.00;70.70;;;;;;4999804;28;20200;-73
2024/02/28 00:54:39;;;;;;;3.47;1.63;;;21.00;70.70;;;;;;4998597;28;20204;-74
2024/02/28 00:57:05;;;;;;;2.80;1.75;;;21.00;70.70;;;;;;4992961;28;20200;-74
2024/02/28 00:59:32;;;;;;;3.65;1.55;;;21.00;70.60;;;;;;5003254;28;20204;-73
2024/02/28 01:01:59;;;;;;;1.83;1.30;;;20.90;70.60;;;;;;5001849;28;20636;-74
2024/02/28 01:04:27;;;;;;;1.40;1.30;;;21.00;70.70;;;;;;5004484;28;20956;-74
2024/02/28 01:06:54;;;;;;;1.60;1.15;;;21.00;70.60;;;;;;5002016;28;20196;-73
2024/02/28 01:09:21;;;;;;;1.45;1.35;;;21.00;70.70;;;;;;4999499;28;20203;-74
2024/02/28 01:11:48;;;;;;;2.30;1.60;;;21.00;70.70;;;;;;5002523;28;20206;-73
2024/02/28 01:14:14;;;;;;;1.70;1.60;;;21.00;70.60;;;;;;5005550;28;20236;-74
2024/02/28 01:16:41;;;;;;;2.17;1.45;;;21.00;70.60;;;;;;5013695;28;20320;-73
2024/02/28 01:19:08;;;;;;;1.60;1.40;;;21.00;70.60;;;;;;5014566;28;20203;-74
2024/02/28 01:21:37;;;;;;;2.13;1.95;;;21.00;70.60;;;;;;4997768;28;20639;-74
2024/02/28 01:24:04;;;;;;;1.63;1.33;;;21.00;70.60;;;;;;5003282;28;20195;-74
2024/02/28 01:26:31;;;;;;;1.77;1.42;;;21.00;70.60;;;;;;5001780;28;20642;-74
2024/02/28 01:28:57;;;;;;;1.52;1.42;;;21.00;70.60;;;;;;5004809;28;20196;-74
2024/02/28 01:31:24;;;;;;;2.63;1.50;;;21.00;70.50;;;;;;5006204;28;20294;-74
2024/02/28 01:33:51;;;;;;;2.53;1.40;;;21.00;70.60;;;;;;5003372;28;20676;-73
2024/02/28 01:36:18;;;;;;;2.72;1.02;;;21.00;70.60;;;;;;5000885;28;20201;-73
2024/02/28 01:38:46;;;;;;;1.83;1.20;;;20.90;70.50;;;;;;5002077;28;20205;-74
2024/02/28 01:41:12;;;;;;;1.85;1.30;;;21.00;70.60;;;;;;5002422;28;20466;-74
2024/02/28 01:43:39;;;;;;;1.70;1.42;;;21.00;70.60;;;;;;5002467;28;20235;-73
2024/02/28 01:46:20;;;;;;;1.50;1.40;;;21.00;70.60;;;;;;5005597;28;20196;-73
2024/02/28 01:48:47;;;;;;;1.50;1.25;;;21.00;70.60;;;;;;5001305;28;20225;-74
2024/02/28 01:51:14;;;;;;;1.38;1.25;;;21.00;70.60;;;;;;5003421;28;20211;-74
2024/02/28 01:53:41;;;;;;;1.77;1.38;;;21.00;70.60;;;;;;5002353;28;20200;-74
2024/02/28 01:56:09;;;;;;;1.52;1.33;;;21.00;70.50;;;;;;5002934;28;20192;-74
2024/02/28 01:58:36;;;;;;;1.70;1.20;;;20.90;70.50;;;;;;5006799;28;20207;-74
2024/02/28 02:01:06;;;;;;;1.55;1.25;;;21.00;70.60;;;;;;5003655;28;20664;-73
2024/02/28 02:03:34;;;;;;;2.08;1.50;;;21.00;70.60;;;;;;5009298;28;20238;-73
2024/02/28 02:06:01;;;;;;;1.92;1.33;;;21.00;70.50;;;;;;5002838;28;20310;-73
2024/02/28 02:08:28;;;;;;;1.52;1.33;;;21.00;70.50;;;;;;5005843;28;20773;-74
2024/02/28 02:10:54;;;;;;;1.52;1.23;;;21.00;70.80;;;;;;5004096;28;20197;-74
2024/02/28 02:13:23;;;;;;;1.20;1.10;;;21.00;70.50;;;;;;5007406;28;20204;-74
2024/02/28 02:15:49;;;;;;;1.30;1.15;;;21.00;70.60;;;;;;5003243;28;20200;-74
2024/02/28 02:18:16;;;;;;;1.80;1.50;;;21.00;70.50;;;;;;5006947;28;20703;-73
2024/02/28 02:20:47;;;;;;;1.60;1.30;;;21.00;70.60;;;;;;4996796;28;20197;-73
2024/02/28 02:23:15;;;;;;;1.40;1.20;;;21.00;70.50;;;;;;5000233;28;20223;-74
2024/02/28 02:25:45;;;;;;;1.20;1.10;;;21.00;70.50;;;;;;5001425;28;20195;-73
2024/02/28 02:28:12;;;;;;;2.10;1.35;;;21.00;70.50;;;;;;5003087;28;20201;-73
2024/02/28 02:30:39;;;;;;;1.43;1.33;;;21.00;70.50;;;;;;5005811;28;20669;-73
2024/02/28 02:33:06;;;;;;;1.27;1.17;;;21.00;70.60;;;;;;5005318;28;20466;-73
2024/02/28 02:35:33;;;;;;;1.65;1.27;;;21.00;70.50;;;;;;5003172;28;20572;-73
2024/02/28 02:38:00;;;;;;;1.50;1.25;;;20.90;70.30;;;;;;5001908;28;20514;-73
2024/02/28 02:40:28;;;;;;;1.27;1.10;;;21.00;70.50;;;;;;5005031;28;20196;-74
2024/02/28 02:42:55;;;;;;;1.50;1.15;;;21.00;70.50;;;;;;5006009;28;20227;-74
2024/02/28 02:45:22;;;;;;;1.40;1.20;;;21.00;70.50;;;;;;5007630;28;20197;-73
2024/02/28 02:47:48;;;;;;;1.40;1.17;;;21.00;70.50;;;;;;4998322;28;20201;-73
2024/02/28 02:50:15;;;;;;;1.50;1.40;;;20.90;70.30;;;;;;5000245;28;20200;-73
2024/02/28 02:52:42;;;;;;;1.30;1.20;;;21.00;70.50;;;;;;4999460;28;20485;-74
2024/02/28 02:55:09;;;;;;;1.65;1.35;;;21.00;70.40;;;;;;4996892;28;20569;-73
2024/02/28 02:57:37;;;;;;;1.63;1.27;;;21.00;70.40;;;;;;4996759;28;20197;-74
2024/02/28 03:00:05;;;;;;;1.60;1.30;;;21.00;70.50;;;;;;4998876;28;20208;-73
2024/02/28 03:02:32;;;;;;;2.33;1.65;;;21.00;71.20;;;;;;5000031;28;20224;-74
2024/02/28 03:04:59;;;;;;;1.50;1.20;;;21.00;70.40;;;;;;4999907;28;20239;-74
2024/02/28 03:07:26;;;;;;;1.80;1.58;;;21.00;70.40;;;;;;4988644;28;20572;-74
2024/02/28 03:09:52;;;;;;;2.20;1.80;;;21.00;70.40;;;;;;4998455;28;20200;-73
2024/02/28 03:12:19;;;;;;;1.33;1.20;;;21.00;70.50;;;;;;5001529;28;20211;-73
2024/02/28 03:14:47;;;;;;;1.42;1.20;;;21.00;70.40;;;;;;4999540;28;20211;-74
2024/02/28 03:17:15;;;;;;;1.25;1.08;;;21.00;70.40;;;;;;4999417;28;20201;-73
2024/02/28 03:19:42;;;;;;;1.50;1.20;;;21.00;70.40;;;;;;4999631;28;20220;-73
2024/02/28 03:22:08;;;;;;;1.50;1.10;;;21.00;70.40;;;;;;4996553;28;20207;-74
2024/02/28 03:24:35;;;;;;;2.20;1.20;;;21.00;70.40;;;;;;5004176;28;20233;-73
2024/02/28 03:27:02;;;;;;;1.40;1.30;;;21.00;70.40;;;;;;5004579;28;20231;-73
2024/02/28 03:29:29;;;;;;;1.38;1.10;;;21.00;70.40;;;;;;5004310;28;20939;-73
2024/02/28 03:31:59;;;;;;;1.50;1.20;;;21.00;70.40;;;;;;5006764;28;20200;-73
2024/02/28 03:34:25;;;;;;;1.88;1.50;;;21.00;70.40;;;;;;4998748;28;20777;-73
2024/02/28 03:36:52;;;;;;;1.25;0.90;;;21.00;70.40;;;;;;4997177;28;20395;-74
2024/02/28 03:39:19;;;;;;;1.23;0.98;;;21.00;70.40;;;;;;5008476;28;20211;-74
2024/02/28 03:41:45;;;;;;;1.38;1.27;;;20.90;70.30;;;;;;5006081;28;20196;-74
2024/02/28 03:44:12;;;;;;;1.80;1.00;;;21.00;70.40;;;;;;5006445;28;20220;-74
2024/02/28 03:46:39;;;;;;;1.60;1.20;;;20.90;70.30;;;;;;4997178;28;20205;-74
2024/02/28 03:49:07;;;;;;;1.30;1.13;;;21.00;70.40;;;;;;5005549;28;20803;-74
2024/02/28 03:51:39;;;;;;;1.92;1.83;;;21.00;70.30;;;;;;4996077;28;20665;-73
2024/02/28 03:54:05;;;;;;;1.58;1.48;;;21.00;70.30;;;;;;5007298;28;20191;-74
2024/02/28 03:56:32;;;;;;;1.30;1.20;;;21.00;70.30;;;;;;5005694;28;20662;-74
2024/02/28 03:58:58;;;;;;;1.40;1.30;;;21.00;70.30;;;;;;5004559;28;20199;-74
2024/02/28 04:01:25;;;;;;;1.30;1.10;;;21.00;70.30;;;;;;4999083;28;20588;-74
2024/02/28 04:03:52;;;;;;;1.50;1.27;;;20.90;70.20;;;;;;5007082;28;20558;-73
2024/02/28 04:06:20;;;;;;;1.10;0.90;;;20.90;70.20;;;;;;5000915;28;21023;-74
2024/02/28 04:08:47;;;;;;;1.40;1.20;;;20.90;70.20;;;;;;5004571;28;20204;-74
2024/02/28 04:11:13;;;;;;;1.30;1.10;;;20.90;70.20;;;;;;5003205;28;20611;-74
2024/02/28 04:13:41;;;;;;;1.30;1.20;;;21.00;70.30;;;;;;5004540;28;20498;-74
2024/02/28 04:16:08;;;;;;;1.58;1.20;;;21.00;70.30;;;;;;5001592;28;20201;-74
2024/02/28 04:18:35;;;;;;;2.17;1.73;;;21.00;70.30;;;;;;5001130;28;20210;-74
2024/02/28 04:21:02;;;;;;;1.10;0.90;;;20.90;70.20;;;;;;4997928;28;20539;-74
2024/02/28 04:23:30;;;;;;;1.20;1.02;;;21.00;70.30;;;;;;5005242;28;20219;-74
2024/02/28 04:25:56;;;;;;;2.28;1.30;;;21.00;70.30;;;;;;5004969;28;20196;-74
2024/02/28 04:28:23;;;;;;;1.42;1.30;;;21.00;70.30;;;;;;5004252;28;20422;-74
2024/02/28 04:30:50;;;;;;;1.45;1.23;;;21.00;70.30;;;;;;5002666;28;20199;-74
2024/02/28 04:33:17;;;;;;;1.30;1.10;;;20.90;70.10;;;;;;4995885;28;20201;-74
2024/02/28 04:35:44;;;;;;;2.63;1.45;;;20.90;70.20;;;;;;5003047;28;20526;-74
2024/02/28 04:38:10;;;;;;;1.52;1.15;;;21.00;70.30;;;;;;5002613;28;20200;-74
2024/02/28 04:40:38;;;;;;;1.50;1.13;;;20.90;70.10;;;;;;5001541;28;21474;-74
2024/02/28 04:43:05;;;;;;;1.52;1.30;;;20.90;70.90;;;;;;5002469;28;20216;-74
2024/02/28 04:45:32;;;;;;;1.63;1.25;;;20.90;70.10;;;;;;5004795;28;20204;-74
2024/02/28 04:47:58;;;;;;;1.83;1.50;;;20.90;70.10;;;;;;4998412;28;20208;-74
2024/02/28 04:50:25;;;;;;;1.83;1.13;;;20.90;70.10;;;;;;5003232;28;20204;-74
2024/02/28 04:52:52;;;;;;;1.30;1.13;;;20.90;70.10;;;;;;5004354;28;20204;-74
2024/02/28 04:55:19;;;;;;;1.30;1.20;;;20.90;70.10;;;;;;5003055;28;20208;-74
2024/02/28 04:57:47;;;;;;;1.77;1.15;;;20.90;70.10;;;;;;4993620;28;20196;-74
2024/02/28 05:00:14;;;;;;;1.65;1.23;;;20.90;70.10;;;;;;5002364;28;20235;-74
2024/02/28 05:02:41;;;;;;;1.40;1.20;;;20.90;70.10;;;;;;5000114;28;20204;-74
2024/02/28 05:05:08;;;;;;;1.40;1.10;;;20.90;70.10;;;;;;4999007;28;20223;-74
2024/02/28 05:07:34;;;;;;;1.38;1.13;;;20.90;70.10;;;;;;5002359;28;20208;-74
2024/02/28 05:10:01;;;;;;;1.58;1.20;;;21.00;70.20;;;;;;5002642;28;20192;-74
2024/02/28 05:12:28;;;;;;;1.60;1.20;;;20.90;70.10;;;;;;5004224;28;20192;-74
2024/02/28 05:14:56;;;;;;;1.50;1.20;;;20.90;70.10;;;;;;5002105;28;20212;-74
2024/02/28 05:17:22;;;;;;;2.35;1.40;;;20.90;70.10;;;;;;4999604;28;20592;-74
2024/02/28 05:19:49;;;;;;;1.45;1.35;;;20.90;70.00;;;;;;4999107;28;20207;-74
2024/02/28 05:22:16;;;;;;;1.20;1.10;;;20.90;70.00;;;;;;4996253;28;20684;-74
2024/02/28 05:24:43;;;;;;;1.52;1.20;;;20.90;70.00;;;;;;5002859;28;20225;-74
2024/02/28 05:27:10;;;;;;;1.60;1.50;;;20.90;70.10;;;;;;4999238;28;20204;-74
2024/02/28 05:29:37;;;;;;;1.90;1.23;;;20.90;70.10;;;;;;5003012;28;20672;-74
2024/02/28 05:32:05;;;;;;;1.60;1.20;;;20.90;70.00;;;;;;5005138;28;20631;-74
2024/02/28 05:34:32;;;;;;;1.70;1.60;;;20.90;70.00;;;;;;5000559;28;20205;-74
2024/02/28 05:37:00;;;;;;;1.30;1.20;;;20.90;70.00;;;;;;4991480;28;20192;-74
2024/02/28 05:39:29;;;;;;;1.75;1.38;;;20.90;70.00;;;;;;5001057;28;20212;-74
2024/02/28 05:41:56;;;;;;;1.40;1.10;;;20.90;70.00;;;;;;5001430;28;20246;-74
2024/02/28 05:44:24;;;;;;;1.58;1.20;;;20.90;70.00;;;;;;5000125;28;20378;-74
2024/02/28 05:46:51;;;;;;;2.78;1.35;;;20.90;70.00;;;;;;5000740;28;20292;-74
2024/02/28 05:49:19;;;;;;;1.38;1.27;;;20.90;70.00;;;;;;5002855;28;20204;-74
2024/02/28 05:51:46;;;;;;;1.48;1.30;;;20.90;70.00;;;;;;4991894;28;20690;-74
2024/02/28 05:54:13;;;;;;;1.40;1.23;;;21.00;70.10;;;;;;5002035;28;20230;-74
2024/02/28 05:56:40;;;;;;;1.20;1.10;;;20.90;70.00;;;;;;4999893;28;20223;-74
2024/02/28 05:59:06;;;;;;;1.67;1.58;;;20.90;70.00;;;;;;5002979;28;20192;-74
2024/02/28 06:01:33;;;;;;;1.50;1.25;;;20.90;70.00;;;;;;5006032;28;20199;-74
2024/02/28 06:04:00;;;;;;;1.40;1.30;;;20.90;69.90;;;;;;5005403;28;20782;-74
2024/02/28 06:06:28;;;;;;;1.80;1.40;;;20.90;70.70;;;;;;5002352;28;20676;-74
2024/02/28 06:08:56;;;;;;;1.70;1.60;;;20.90;70.00;;;;;;5002127;28;20212;-74
2024/02/28 06:11:22;;;;;;;1.17;1.05;;;20.90;70.00;;;;;;5001857;28;20196;-74
2024/02/28 06:13:52;;;;;;;1.50;1.15;;;20.90;70.00;;;;;;5003546;28;20212;-74
2024/02/28 06:16:18;;;;;;;1.60;1.50;;;20.90;70.00;;;;;;5005249;28;20200;-74
2024/02/28 06:18:45;;;;;;;1.30;1.00;;;20.90;70.00;;;;;;4991553;28;20234;-74
2024/02/28 06:21:13;;;;;;;1.15;1.00;;;20.90;70.00;;;;;;4996256;28;20203;-74
2024/02/28 06:23:41;;;;;;;1.27;1.15;;;20.90;70.00;;;;;;5006427;28;20220;-74
2024/02/28 06:26:14;;;;;;;1.48;1.30;;;20.90;70.00;;;;;;5004182;28;20209;-74
2024/02/28 06:28:42;;;;;;;1.63;1.52;;;20.90;69.90;;;;;;5006226;28;20678;-74
2024/02/28 06:31:13;;;;;;;1.48;1.27;;;20.90;70.00;;;;;;5003013;28;20496;-74
2024/02/28 06:33:40;;;;;;;1.98;1.50;;;20.90;70.00;;;;;;5000729;28;20722;-74
2024/02/28 06:36:07;;;;;;;2.47;1.50;;;20.90;69.90;;;;;;4998789;28;20426;-74
2024/02/28 06:38:34;;;;;;;1.50;1.25;;;20.90;69.90;;;;;;5007369;28;20204;-74
2024/02/28 06:41:02;;;;;;;1.75;1.40;;;20.90;69.90;;;;;;5005911;28;20671;-74
2024/02/28 06:43:29;;;;;;;1.50;1.30;;;20.90;69.90;;;;;;5007211;28;20210;-74
2024/02/28 06:45:56;;;;;;;1.50;1.10;;;20.90;70.00;;;;;;5002680;28;20198;-74
2024/02/28 06:48:23;;;;;;;1.55;1.45;;;20.90;69.90;;;;;;5001793;28;20196;-74
2024/02/28 06:50:50;;;;;;;1.85;1.45;;;20.90;70.00;;;;;;4996597;28;20199;-75
2024/02/28 06:53:17;;;;;;;1.17;1.00;;;20.90;69.90;;;;;;5004809;28;20199;-74
2024/02/28 06:55:45;;;;;;;2.00;1.60;;;20.90;70.00;;;;;;5001351;28;20231;-74
2024/02/28 06:58:13;;;;;;;1.55;1.17;;;20.90;69.90;;;;;;5005822;28;20593;-74
2024/02/28 07:00:40;;;;;;;1.40;1.30;;;20.90;70.70;;;;;;5002491;28;20204;-73
2024/02/28 07:03:06;;;;;;;1.70;1.40;;;20.90;69.90;;;;;;5007526;28;20203;-73
2024/02/28 07:05:34;;;;;;;1.30;1.20;;;20.90;69.90;;;;;;4999267;28;20988;-73
2024/02/28 07:08:00;;;;;;;1.63;1.38;;;20.90;70.00;;;;;;4998298;28;20948;-73
2024/02/28 07:10:27;;;;;;;2.10;1.20;;;20.90;69.90;;;;;;5005868;28;20211;-73
2024/02/28 07:12:54;;;;;;;1.95;1.35;;;20.90;69.90;;;;;;5010816;28;20207;-73
2024/02/28 07:15:22;;;;;;;1.48;1.27;;;20.90;69.90;;;;;;5003878;28;20215;-73
2024/02/28 07:17:49;;;;;;;1.73;1.63;;;20.90;69.80;;;;;;5006574;28;20287;-73
2024/02/28 07:20:16;;;;;;;1.50;1.30;;;20.90;69.90;;;;;;5005376;28;20546;-73
2024/02/28 07:22:43;;;;;;;1.75;1.52;;;20.80;69.80;;;;;;4996242;28;20204;-73
2024/02/28 07:25:11;;;;;;;1.52;1.10;;;20.80;69.80;;;;;;5000818;28;20227;-72
2024/02/28 07:27:37;;;;;;;1.75;1.45;;;20.90;69.90;;;;;;5003240;28;20199;-72
2024/02/28 07:30:06;;;;;;;1.50;1.25;;;20.90;69.80;;;;;;5005854;28;20196;-73
2024/02/28 07:32:36;;;;;;;1.60;1.30;;;20.90;69.90;;;;;;5009638;28;20480;-72
2024/02/28 07:35:03;;;;;;;1.92;1.20;;;20.90;69.90;;;;;;5007099;28;20200;-72
2024/02/28 07:37:30;;;;;;;1.45;1.27;;;20.90;69.90;;;;;;4998807;28;20202;-72
2024/02/28 07:39:57;;;;;;;2.08;1.23;;;20.90;69.90;;;;;;5007299;28;20640;-72
2024/02/28 07:42:23;;;;;;;1.20;1.03;;;20.90;70.00;;;;;;5007236;28;20858;-72
2024/02/28 07:44:53;;;;;;;2.28;1.30;;;20.80;69.80;;;;;;4994103;28;20820;-73
2024/02/28 07:47:20;;;;;;;1.83;1.47;;;20.90;69.90;;;;;;5006416;28;20208;-73
2024/02/28 07:49:48;;;;;;;1.35;1.25;;;20.90;69.90;;;;;;5001411;28;20923;-72
2024/02/28 07:52:14;;;;;;;1.50;1.10;;;20.90;69.90;;;;;;4997089;28;20196;-72
2024/02/28 07:54:43;;;;;;;1.50;1.10;;;20.90;69.90;;;;;;4998876;28;20208;-73
2024/02/28 07:57:10;;;;;;;1.42;1.27;;;20.90;69.90;;;;;;5001519;28;20282;-72
2024/02/28 07:59:40;;;;;;;1.73;1.20;;;20.90;69.80;;;;;;4997840;28;20232;-72
2024/02/28 08:02:07;;;;;;;1.50;1.40;;;20.90;69.90;;;;;;5004516;28;20203;-73
2024/02/28 08:04:34;;;;;;;1.50;1.10;;;21.00;69.90;;;;;;5004252;28;20220;-73
2024/02/28 08:07:03;;;;;;;1.40;1.25;;;20.90;69.90;;;;;;4997689;28;20723;-72
2024/02/28 08:09:29;;;;;;;1.73;1.10;;;20.90;69.80;;;;;;5001610;28;20231;-73
2024/02/28 08:11:57;;;;;;;1.60;1.33;;;20.90;69.80;;;;;;4997673;28;20204;-73
2024/02/28 08:14:24;;;;;;;1.95;1.70;;;20.90;69.80;;;;;;4986527;28;21156;-72
2024/02/28 08:16:51;;;;;;;1.40;1.20;;;20.90;69.80;;;;;;5004120;28;20189;-73
2024/02/28 08:19:18;;;;;;;2.05;1.83;;;20.90;69.80;;;;;;5004788;28;20199;-73
2024/02/28 08:21:45;;;;;;;1.70;1.58;;;20.90;69.80;;;;;;5001051;28;20797;-73
2024/02/28 08:24:13;;;;;;;1.90;1.65;;;20.90;69.80;;;;;;5002711;28;20273;-73
2024/02/28 08:26:41;;;;;;;1.40;1.20;;;20.90;69.80;;;;;;5003387;28;20196;-72
2024/02/28 08:29:08;;;;;;;1.90;1.75;;;20.90;69.80;;;;;;5005418;28;20202;-73
2024/02/28 08:31:41;;;;;;;1.55;1.45;;;20.90;69.80;;;;;;5001082;28;20204;-73
2024/02/28 08:34:08;;;;;;;1.70;1.40;;;20.90;69.80;;;;;;5003079;28;20196;-73
2024/02/28 08:36:35;;;;;;;3.22;1.70;;;20.90;69.80;;;;;;5000950;28;20192;-73
2024/02/28 08:39:04;;;;;;;2.10;1.60;;;20.90;69.80;;;;;;4999398;28;20201;-73
2024/02/28 08:41:32;;;;;;;1.58;1.33;;;20.90;69.90;;;;;;5004054;28;20204;-74
2024/02/28 08:43:59;;;;;;;2.08;1.58;;;20.90;70.10;;;;;;4998582;28;20207;-72
2024/02/28 08:46:26;;;;;;;4.07;1.83;;;20.90;70.50;;;;;;4981578;28;20204;-78
2024/02/28 08:48:53;;;;;;;1.92;1.73;;;21.00;70.50;;;;;;5002692;28;20655;-79
2024/02/28 08:51:19;;;;;;;2.22;1.58;;;20.90;70.50;;;;;;4998241;28;20552;-74
2024/02/28 08:53:46;;;;;;;4.22;1.80;;;20.90;70.50;;;;;;4989212;28;20202;-76
2024/02/28 08:56:13;;;;;;;2.13;1.42;;;20.90;70.70;;;;;;4999420;28;20444;-77
2024/02/28 08:58:41;;;;;;;1.70;1.30;;;20.90;70.70;;;;;;4994246;28;20204;-75
2024/02/28 09:01:08;;;;;;;2.42;1.42;;;20.90;70.70;;;;;;4997280;28;20196;-75
2024/02/28 09:03:35;;;;;;;1.70;1.45;;;21.00;70.90;;;;;;5003429;28;20201;-76
2024/02/28 09:06:01;;;;;;;1.88;1.77;;;20.90;70.70;;;;;;5004909;28;20825;-75
2024/02/28 09:08:28;;;;;;;1.60;1.40;;;20.90;70.60;;;;;;4995960;28;20749;-78
2024/02/28 09:10:55;;;;;;;2.85;1.48;;;20.90;70.50;;;;;;5003974;28;20574;-75
2024/02/28 09:13:21;;;;;;;1.63;1.48;;;20.90;70.60;;;;;;5003065;28;20231;-76
2024/02/28 09:15:49;;;;;;;2.10;1.80;;;21.00;70.60;;;;;;4998160;28;21147;-77
2024/02/28 09:18:17;;;;;;;2.25;1.70;;;21.00;70.60;;;;;;5001661;28;20212;-74
2024/02/28 09:20:44;;;;;;;2.33;1.75;;;21.00;70.60;;;;;;5000160;28;20205;-78
2024/02/28 09:23:11;;;;;;;2.25;2.03;;;21.00;70.50;;;;;;5003910;28;20202;-75
2024/02/28 09:25:37;;;;;;;1.95;1.65;;;20.90;70.40;;;;;;5005748;28;20565;-76
2024/02/28 09:28:04;;;;;;;1.40;1.17;;;21.00;70.50;;;;;;5003769;28;20196;-76
2024/02/28 09:30:31;;;;;;;1.60;1.42;;;21.00;70.50;;;;;;4998651;28;20212;-77
2024/02/28 09:32:59;;;;;;;1.63;1.40;;;21.00;70.80;;;;;;4998551;28;20234;-76
2024/02/28 09:35:26;;;;;;;1.88;1.50;;;20.90;70.40;;;;;;4999610;28;20479;-76
2024/02/28 09:37:53;;;;;;;1.80;1.50;;;20.90;70.30;;;;;;5002262;28;20394;-75
2024/02/28 09:40:19;;;;;;;5.93;1.20;;;20.90;70.30;;;;;;5001267;28;20199;-78
2024/02/28 09:42:52;;;;;;;1.80;1.40;;;20.90;70.30;;;;;;5004104;28;20576;-76
2024/02/28 09:45:21;;;;;;;1.85;1.60;;;20.90;70.40;;;;;;5000852;28;20248;-75
2024/02/28 09:47:48;;;;;;;10.90;2.78;;;20.90;70.30;;;;;;5002000;28;20307;-78
2024/02/28 09:50:16;;;;;;;1.92;1.73;;;20.90;70.30;;;;;;5006282;28;20209;-76
2024/02/28 09:52:43;;;;;;;2.05;1.85;;;20.90;70.30;;;;;;5001174;28;20616;-79
2024/02/28 09:55:10;;;;;;;1.70;1.58;;;20.90;70.30;;;;;;4998983;28;20199;-75
2024/02/28 09:57:39;;;;;;;2.00;1.75;;;21.00;70.40;;;;;;5000537;28;20236;-74
2024/02/28 10:00:09;;;;;;;1.58;1.40;;;20.90;70.30;;;;;;4997784;28;20188;-78
2024/02/28 10:02:38;;;;;;;1.45;1.27;;;20.90;70.30;;;;;;5000025;28;20211;-77
2024/02/28 10:05:06;;;;;;;1.27;1.17;;;21.00;70.40;;;;;;4996767;28;21174;-74
2024/02/28 10:07:34;;;;;;;2.00;1.70;;;20.90;70.30;;;;;;5004105;28;20227;-77
2024/02/28 10:10:01;;;;;;;2.20;1.73;;;20.90;70.30;;;;;;5002338;28;20200;-77
2024/02/28 10:12:27;;;;;;;1.83;1.60;;;20.90;70.30;;;;;;4996546;28;20200;-77
2024/02/28 10:14:54;;;;;;;1.70;1.50;;;20.90;70.30;;;;;;4992838;28;20217;-76
2024/02/28 10:17:21;;;;;;;2.10;1.77;;;20.90;70.30;;;;;;5002421;28;20299;-78
2024/02/28 10:19:48;;;;;;;1.75;1.45;;;20.90;70.30;;;;;;4996509;28;20199;-76
2024/02/28 10:22:15;;;;;;;1.88;1.60;;;20.90;70.30;;;;;;4999607;28;20197;-76
2024/02/28 10:24:43;;;;;;;2.20;1.75;;;20.90;70.40;;;;;;5004855;28;20212;-71
2024/02/28 10:27:10;;;;;;;3.63;1.98;;;20.90;70.40;;;;;;4997775;28;20207;-71
2024/02/28 10:29:37;;;;;;;1.80;1.70;;;20.90;70.50;;;;;;4997804;28;20197;-72
2024/02/28 10:32:05;;;;;;;5.40;1.87;;;21.00;70.60;;;;;;5000704;28;21215;-66
2024/02/28 10:34:34;;;;;;;4.17;1.93;;;21.00;70.70;;;;;;5005159;28;20939;-66
2024/02/28 10:37:04;;;;;;;1.65;1.30;;;21.00;70.80;;;;;;5004252;28;20462;-66
2024/02/28 10:39:32;;;;;;;1.65;1.50;;;21.00;70.90;;;;;;5009446;28;20212;-66
2024/02/28 10:42:01;;;;;;;1.90;1.70;;;21.10;71.20;;;;;;5011343;28;20196;-67
2024/02/28 10:44:28;;;;;;;1.98;1.77;;;21.10;71.20;;;;;;5008095;28;20208;-66
2024/02/28 10:46:56;;;;;;;2.72;1.90;;;21.10;71.20;;;;;;5007806;28;20238;-66
2024/02/28 10:49:23;;;;;;;2.47;1.80;;;21.10;71.30;;;;;;5010131;28;20208;-70
2024/02/28 10:51:50;;;;;;;1.75;1.35;;;21.30;71.40;;;;;;5003350;28;20946;-69
2024/02/28 10:54:19;;;;;;;1.90;1.77;;;21.20;71.40;;;;;;4999398;28;20830;-67
2024/02/28 10:56:46;;;;;;;2.63;1.83;;;21.20;71.40;;;;;;5005016;28;20702;-67
2024/02/28 10:59:14;;;;;;;2.37;1.97;;;21.20;71.50;;;;;;5008259;28;20458;-67
2024/02/28 11:01:43;;;;;;;1.90;1.70;;;21.20;71.40;;;;;;5006600;28;20456;-66
2024/02/28 11:04:11;;;;;;;2.10;1.90;;;21.20;71.40;;;;;;5004909;28;20535;-68
2024/02/28 11:06:48;;;;;;;2.00;1.80;;;21.30;71.50;;;;;;5004886;28;20223;-69
2024/02/28 11:09:20;;;;;;;3.20;1.77;;;21.30;71.50;;;;;;4995343;28;20455;-68
2024/02/28 11:11:47;;;;;;;1.80;1.70;;;21.30;71.70;;;;;;5002541;28;20961;-70
2024/02/28 11:14:17;;;;;;;1.97;1.57;;;21.30;71.60;;;;;;5005831;28;20471;-68
2024/02/28 11:16:46;;;;;;;1.90;1.43;;;21.30;71.50;;;;;;5003826;28;20469;-66
2024/02/28 11:19:21;;;;;;;1.80;1.70;;;21.30;72.30;;;;;;5002478;28;20467;-65
2024/02/28 11:21:54;;;;;;;2.10;1.80;;;21.40;71.70;;;;;;4995397;28;20470;-65
2024/02/28 11:24:24;;;;;;;2.33;1.97;;;21.40;71.70;;;;;;4998544;28;20494;-67
2024/02/28 11:26:51;;;;;;;2.00;1.83;;;21.40;71.70;;;;;;4994955;28;20509;-69
2024/02/28 11:29:25;;;;;;;2.90;1.70;;;21.40;71.50;;;;;;4997566;28;20462;-69
2024/02/28 11:31:51;;;;;;;2.10;1.90;;;21.40;71.60;;;;;;4999593;28;20479;-66
2024/02/28 11:34:18;;;;;;;1.93;1.57;;;21.50;71.70;;;;;;5001131;28;20484;-65
2024/02/28 11:36:48;;;;;;;2.13;1.77;;;21.50;71.60;;;;;;4997516;28;20477;-69
2024/02/28 11:39:15;;;;;;;2.10;1.80;;;21.50;71.60;;;;;;4995696;28;21048;-66
2024/02/28 11:41:42;;;;;;;2.23;1.97;;;21.50;71.70;;;;;;4998680;28;21210;-69
2024/02/28 11:44:09;;;;;;;2.33;2.13;;;21.50;71.60;;;;;;4994832;28;20604;-66
2024/02/28 11:46:37;;;;;;;2.35;1.88;;;21.50;71.60;;;;;;5001752;28;20486;-67
2024/02/28 11:49:05;;;;;;;2.70;1.97;;;21.50;71.60;;;;;;5004010;28;20319;-66
2024/02/28 11:51:32;;;;;;;1.80;1.70;;;21.60;71.70;;;;;;4997750;28;20463;-66
2024/02/28 11:54:01;;;;;;;2.37;2.07;;;21.60;71.70;;;;;;4999100;28;20466;-72
2024/02/28 11:56:28;;;;;;;14.53;10.37;;;21.60;72.50;;;;;;5002873;28;20477;-71
2024/02/28 11:58:55;;;;;;;23.23;16.73;;;21.50;66.60;;;;;;4999995;28;20463;-72
2024/02/28 12:01:38;;;;;;;20.93;16.50;;;21.20;60.70;;;;;;5004197;28;20939;-73
2024/02/28 12:04:06;;;;;;;18.53;13.47;;;20.90;60.00;;;;;;4992418;28;20466;-73
2024/02/28 12:06:33;;;;;;;14.63;11.23;;;21.10;63.80;;;;;;4998564;28;20483;-70
2024/02/28 12:09:00;;;;;;;12.57;10.10;;;21.20;64.60;;;;;;5000279;28;20471;-67
2024/02/28 12:11:27;;;;;;;10.97;9.70;;;21.20;64.90;;;;;;5006401;28;20481;-66
2024/02/28 12:13:55;;;;;;;11.10;9.13;;;21.40;65.30;;;;;;5000262;28;24536;-67
2024/02/28 12:16:24;;;;;;;9.20;7.50;;;21.40;65.60;;;;;;5004265;28;20467;-66
2024/02/28 12:18:52;;;;;;;9.17;7.30;;;21.50;65.90;;;;;;5003340;28;21132;-68
2024/02/28 12:21:19;;;;;;;9.47;7.33;;;21.50;66.20;;;;;;5000817;28;20473;-71
2024/02/28 12:23:47;;;;;;;7.17;6.37;;;21.60;66.40;;;;;;5000426;28;20463;-71
2024/02/28 12:26:14;;;;;;;6.80;5.07;;;21.60;66.50;;;;;;5007146;28;20494;-68
2024/02/28 12:28:41;;;;;;;6.43;4.93;;;21.70;66.80;;;;;;5002607;28;20450;-67
2024/02/28 12:31:09;;;;;;;6.53;5.30;;;21.70;66.80;;;;;;5000680;28;22437;-66
2024/02/28 12:33:36;;;;;;;7.40;5.40;;;21.70;67.00;;;;;;5002458;28;20714;-65
2024/02/28 12:36:05;;;;;;;6.03;5.07;;;21.70;67.10;;;;;;4999739;28;20486;-66
2024/02/28 12:38:31;;;;;;;6.40;5.23;;;21.80;67.10;;;;;;5002049;28;20576;-68
2024/02/28 12:40:58;;;;;;;6.07;4.53;;;21.80;67.40;;;;;;4999862;28;20459;-66
2024/02/28 12:43:26;;;;;;;5.33;4.80;;;21.80;67.50;;;;;;5005149;28;20470;-71
2024/02/28 12:45:52;;;;;;;6.13;5.50;;;21.80;67.40;;;;;;4995508;28;20778;-71